Time;durP1;ratioP1;P1;durP2;ratioP2;P2;SDS_P1;SDS_P2;PMS_P1;PMS_P2;Temp;Humidity;BMP_temperature;BMP_pressure;BME280_temperature;BME280_humidity;BME280_pressure;Samples;Min_cycle;Max_cycle;Signal;HPM_P1;HPM_P2
2024/03/14 00:00:18;;;;;;;4.27;3.20;;;;;;;7.04;90.34;97820.31;6303003;28;20204;-52
2024/03/14 00:03:22;;;;;;;3.40;2.90;;;;;;;7.20;87.39;97817.97;6297779;28;20254;-54
2024/03/14 00:06:24;;;;;;;3.50;3.20;;;;;;;7.18;87.59;97804.09;6294831;28;21251;-53
2024/03/14 00:09:26;;;;;;;3.40;3.10;;;;;;;7.27;87.39;97815.25;6293971;28;20588;-55
2024/03/14 00:12:28;;;;;;;3.40;3.10;;;;;;;7.15;89.64;97814.34;6301782;28;20193;-53
2024/03/14 00:15:31;;;;;;;2.80;2.60;;;;;;;6.90;93.02;97823.09;6290514;28;20191;-56
2024/03/14 00:18:35;;;;;;;4.80;2.80;;;;;;;6.81;95.41;97820.91;6293215;28;20194;-57
2024/03/14 00:21:39;;;;;;;3.40;3.00;;;;;;;6.69;96.02;97815.47;6303904;28;20228;-52
2024/03/14 00:24:42;;;;;;;3.73;2.50;;;;;;;6.56;96.56;97799.69;6302421;28;20197;-53
2024/03/14 00:27:44;;;;;;;4.70;3.00;;;;;;;6.35;98.63;97814.84;6299894;28;20716;-56
2024/03/14 00:30:46;;;;;;;6.47;4.50;;;;;;;6.24;96.91;97777.66;6296642;28;20406;-56
2024/03/14 00:33:48;;;;;;;5.90;3.60;;;;;;;6.38;97.48;97803.84;6293925;28;20194;-57
2024/03/14 00:36:50;;;;;;;5.50;3.33;;;;;;;6.12;99.19;97799.50;6291421;28;20687;-53
2024/03/14 00:39:52;;;;;;;5.40;4.00;;;;;;;6.02;99.49;97785.09;6293175;28;20955;-54
2024/03/14 00:42:56;;;;;;;5.17;4.43;;;;;;;5.87;99.75;97766.81;6293002;28;20650;-56
2024/03/14 00:45:58;;;;;;;3.40;3.10;;;;;;;5.85;100.00;97793.44;6295001;28;20280;-53
2024/03/14 00:49:01;;;;;;;5.37;3.57;;;;;;;5.73;100.00;97787.19;6307248;28;20562;-56
2024/03/14 00:52:03;;;;;;;4.50;3.23;;;;;;;5.58;100.00;97787.44;6295231;28;20225;-53
2024/03/14 00:55:09;;;;;;;4.83;3.07;;;;;;;5.36;100.00;97775.50;6299646;28;20197;-53
2024/03/14 00:58:12;;;;;;;5.93;3.47;;;;;;;5.21;100.00;97791.56;6296071;28;20266;-54
2024/03/14 01:01:14;;;;;;;5.20;3.40;;;;;;;4.97;100.00;97792.97;6293072;28;20336;-56
2024/03/14 01:04:17;;;;;;;4.93;3.50;;;;;;;4.84;100.00;97788.53;6293669;28;20197;-54
2024/03/14 01:07:23;;;;;;;5.93;3.60;;;;;;;4.79;100.00;97783.06;6292395;28;20263;-52
2024/03/14 01:10:25;;;;;;;5.97;3.80;;;;;;;4.76;100.00;97764.97;6294375;28;20571;-55
2024/03/14 01:13:28;;;;;;;3.97;3.40;;;;;;;4.80;100.00;97776.75;6306756;28;20196;-56
2024/03/14 01:16:30;;;;;;;5.53;4.20;;;;;;;4.71;100.00;97770.03;6291919;28;20754;-56
2024/03/14 01:19:32;;;;;;;5.90;4.57;;;;;;;4.62;100.00;97771.25;6292462;28;20191;-55
2024/03/14 01:22:34;;;;;;;4.83;3.80;;;;;;;4.61;100.00;97767.78;6297409;28;20203;-55
2024/03/14 01:25:36;;;;;;;5.13;3.50;;;;;;;4.73;100.00;97765.38;6294243;28;20199;-56
2024/03/14 01:28:39;;;;;;;4.03;3.60;;;;;;;4.58;100.00;97770.84;6292299;28;20686;-57
2024/03/14 01:31:43;;;;;;;4.70;3.90;;;;;;;4.50;100.00;97764.94;6293162;28;20228;-53
2024/03/14 01:34:47;;;;;;;5.23;3.43;;;;;;;4.49;100.00;97771.25;6293321;28;20207;-53
2024/03/14 01:37:49;;;;;;;5.50;4.00;;;;;;;4.50;100.00;97768.41;6293002;28;20205;-56
2024/03/14 01:40:51;;;;;;;7.37;4.20;;;;;;;4.45;100.00;97757.63;6308007;28;20229;-56
2024/03/14 01:43:58;;;;;;;4.90;3.70;;;;;;;4.38;100.00;97755.00;6292160;28;20234;-55
2024/03/14 01:47:00;;;;;;;4.97;3.83;;;;;;;4.47;100.00;97757.44;6297357;28;20977;-54
2024/03/14 01:50:05;;;;;;;6.23;3.83;;;;;;;4.23;100.00;97751.69;6276540;28;20659;-56
2024/03/14 01:53:08;;;;;;;6.57;4.00;;;;;;;4.11;100.00;97758.56;6294730;28;20217;-54
2024/03/14 01:56:11;;;;;;;5.70;4.10;;;;;;;3.96;100.00;97747.38;6292819;28;20823;-56
2024/03/14 01:59:13;;;;;;;6.53;3.93;;;;;;;3.87;100.00;97763.34;6288050;28;20548;-55
2024/03/14 02:02:17;;;;;;;8.77;4.40;;;;;;;3.73;100.00;97748.50;6291580;28;20267;-55
2024/03/14 02:05:27;;;;;;;4.43;3.87;;;;;;;3.66;100.00;97755.56;6297103;28;20216;-53
2024/03/14 02:08:29;;;;;;;5.40;4.10;;;;;;;3.57;100.00;97754.09;6307266;28;20745;-56
2024/03/14 02:11:31;;;;;;;5.10;3.93;;;;;;;3.60;100.00;97757.16;6293789;28;20194;-54
2024/03/14 02:14:34;;;;;;;6.80;4.57;;;;;;;3.60;100.00;97751.09;6294949;28;20198;-55
2024/03/14 02:17:36;;;;;;;13.33;8.57;;;;;;;3.29;100.00;97749.69;6297604;28;20185;-56
2024/03/14 02:20:39;;;;;;;18.70;11.67;;;;;;;3.08;100.00;97732.16;6294548;28;20583;-55
2024/03/14 02:23:42;;;;;;;18.27;10.57;;;;;;;3.08;100.00;97742.69;6291722;28;20662;-55
2024/03/14 02:26:44;;;;;;;19.77;11.43;;;;;;;3.08;100.00;97757.66;6291653;28;20217;-56
2024/03/14 02:29:46;;;;;;;14.80;11.07;;;;;;;2.99;100.00;97756.97;6296166;28;20237;-55
2024/03/14 02:32:50;;;;;;;11.67;7.80;;;;;;;3.06;100.00;97751.78;6296299;28;20263;-56
2024/03/14 02:35:53;;;;;;;9.07;6.23;;;;;;;2.87;100.00;97739.31;6308667;28;20559;-56
2024/03/14 02:38:55;;;;;;;7.23;5.33;;;;;;;2.91;100.00;97753.72;6304294;28;20283;-56
2024/03/14 02:41:59;;;;;;;7.70;4.40;;;;;;;2.70;100.00;97755.34;6302889;28;20619;-52
2024/03/14 02:45:01;;;;;;;7.93;4.13;;;;;;;2.88;100.00;97748.81;6302062;28;20223;-55
2024/03/14 02:48:07;;;;;;;5.13;4.30;;;;;;;2.70;100.00;97749.28;6299839;28;20210;-54
2024/03/14 02:51:10;;;;;;;4.87;3.87;;;;;;;2.80;100.00;97747.13;6298044;28;20197;-52
2024/03/14 02:54:16;;;;;;;5.20;3.93;;;;;;;2.74;100.00;97742.63;6299335;28;20194;-53
2024/03/14 02:57:19;;;;;;;6.77;4.80;;;;;;;2.82;100.00;97748.56;6291982;28;20187;-56
2024/03/14 03:00:22;;;;;;;7.73;5.03;;;;;;;2.74;100.00;97740.81;6310750;28;20202;-50
2024/03/14 03:03:25;;;;;;;7.87;6.53;;;;;;;2.80;100.00;97742.66;6295394;28;20256;-56
2024/03/14 03:06:28;;;;;;;7.47;6.20;;;;;;;2.67;100.00;97749.66;6275178;28;20186;-54
2024/03/14 03:09:30;;;;;;;11.43;6.83;;;;;;;2.85;100.00;97747.38;6296674;28;20291;-56
2024/03/14 03:12:39;;;;;;;9.53;7.47;;;;;;;2.91;100.00;97745.81;6299501;28;20280;-54
2024/03/14 03:15:42;;;;;;;10.97;8.23;;;;;;;2.93;100.00;97736.72;6299343;28;20281;-56
2024/03/14 03:18:44;;;;;;;12.20;9.30;;;;;;;2.95;100.00;97739.94;6298314;28;20276;-55
2024/03/14 03:21:46;;;;;;;11.23;8.00;;;;;;;3.14;100.00;97735.81;6295842;28;20599;-53
2024/03/14 03:24:49;;;;;;;13.10;9.57;;;;;;;3.10;100.00;97738.06;6295660;28;20333;-56
2024/03/14 03:27:51;;;;;;;13.87;8.97;;;;;;;3.47;100.00;97743.13;6294715;28;20206;-55
2024/03/14 03:30:53;;;;;;;10.57;7.87;;;;;;;3.44;100.00;97746.13;6294619;28;20254;-49
2024/03/14 03:33:56;;;;;;;11.47;9.60;;;;;;;3.54;100.00;97725.50;6301036;28;20182;-50
2024/03/14 03:36:59;;;;;;;20.10;12.87;;;;;;;3.47;100.00;97729.94;6283125;28;20655;-48
2024/03/14 03:40:01;;;;;;;17.57;12.73;;;;;;;3.43;100.00;97733.97;6294830;28;20282;-56
2024/03/14 03:43:04;;;;;;;12.13;9.77;;;;;;;3.28;100.00;97736.72;6294792;28;20215;-55
2024/03/14 03:46:09;;;;;;;12.90;9.43;;;;;;;3.22;100.00;97726.97;6299560;28;20241;-52
2024/03/14 03:49:12;;;;;;;9.97;8.37;;;;;;;3.20;100.00;97735.09;6291261;28;20199;-51
2024/03/14 03:52:17;;;;;;;19.30;13.80;;;;;;;3.09;100.00;97731.13;6293744;28;20279;-55
2024/03/14 03:55:19;;;;;;;18.33;12.50;;;;;;;3.14;100.00;97738.47;6296972;28;20191;-57
2024/03/14 03:58:22;;;;;;;16.70;12.10;;;;;;;2.87;100.00;97703.28;6294074;28;20197;-51
2024/03/14 04:01:27;;;;;;;11.47;9.10;;;;;;;3.13;100.00;97736.84;6300837;28;20193;-56
2024/03/14 04:04:29;;;;;;;10.53;8.10;;;;;;;2.78;100.00;97697.34;6279022;28;20199;-56
2024/03/14 04:07:34;;;;;;;8.10;6.07;;;;;;;3.09;100.00;97727.69;6297699;28;20211;-56
2024/03/14 04:10:37;;;;;;;9.30;6.17;;;;;;;2.83;100.00;97728.34;6300222;28;20784;-54
2024/03/14 04:13:39;;;;;;;8.00;6.30;;;;;;;2.56;100.00;97741.28;6293992;28;20612;-56
2024/03/14 04:16:42;;;;;;;9.90;7.80;;;;;;;2.37;100.00;97736.66;6293434;28;20682;-56
2024/03/14 04:19:45;;;;;;;15.53;10.70;;;;;;;2.19;100.00;97736.28;6297395;28;20196;-56
2024/03/14 04:22:48;;;;;;;13.53;9.10;;;;;;;2.14;100.00;97738.66;6293115;28;20198;-56
2024/03/14 04:25:53;;;;;;;18.17;11.03;;;;;;;1.98;100.00;97724.75;6293698;28;20754;-54
2024/03/14 04:28:55;;;;;;;21.00;12.13;;;;;;;2.17;100.00;97740.88;6292735;28;20210;-56
2024/03/14 04:31:57;;;;;;;17.93;11.17;;;;;;;1.94;100.00;97748.94;6301495;28;20669;-51
2024/03/14 04:35:01;;;;;;;12.73;8.90;;;;;;;1.89;100.00;97746.06;6302131;28;20193;-50
2024/03/14 04:38:03;;;;;;;8.60;6.17;;;;;;;1.76;100.00;97746.72;6296173;28;20654;-56
2024/03/14 04:41:14;;;;;;;8.20;6.33;;;;;;;1.69;100.00;97751.91;6299024;28;20185;-56
2024/03/14 04:44:20;;;;;;;9.27;6.93;;;;;;;1.66;100.00;97759.31;6293668;28;20234;-56
2024/03/14 04:47:22;;;;;;;8.53;6.50;;;;;;;1.73;100.00;97758.41;6275671;28;20586;-55
2024/03/14 04:50:24;;;;;;;7.00;5.90;;;;;;;1.64;100.00;97761.31;6291285;28;20196;-54
2024/03/14 04:53:27;;;;;;;7.60;6.10;;;;;;;1.67;100.00;97759.13;6278000;28;20191;-55
2024/03/14 04:56:31;;;;;;;7.97;5.40;;;;;;;1.93;100.00;97761.28;6304206;28;20734;-48
2024/03/14 04:59:35;;;;;;;8.93;6.43;;;;;;;1.76;100.00;97762.47;6300074;28;20670;-56
2024/03/14 05:02:40;;;;;;;9.37;6.10;;;;;;;1.87;100.00;97766.44;6291557;28;20198;-56
2024/03/14 05:05:42;;;;;;;8.37;6.37;;;;;;;1.96;100.00;97763.50;6296010;28;20571;-54
2024/03/14 05:08:45;;;;;;;8.40;6.67;;;;;;;1.88;100.00;97760.19;6296338;28;20213;-53
2024/03/14 05:11:47;;;;;;;11.57;6.30;;;;;;;1.74;100.00;97765.28;6289678;28;20198;-54
2024/03/14 05:14:49;;;;;;;6.50;5.00;;;;;;;1.74;100.00;97746.91;6292021;28;20595;-53
2024/03/14 05:17:53;;;;;;;8.13;5.90;;;;;;;1.92;100.00;97749.16;6292167;28;20604;-53
2024/03/14 05:20:55;;;;;;;7.70;5.93;;;;;;;1.92;100.00;97769.31;6302999;28;20238;-53
2024/03/14 05:23:58;;;;;;;7.87;5.37;;;;;;;2.17;100.00;97769.78;6297711;28;20198;-55
2024/03/14 05:27:00;;;;;;;6.70;5.53;;;;;;;2.18;100.00;97763.56;6293281;28;21010;-56
2024/03/14 05:30:03;;;;;;;8.43;5.83;;;;;;;2.13;100.00;97766.75;6295708;28;20194;-56
2024/03/14 05:33:05;;;;;;;7.87;6.87;;;;;;;2.14;100.00;97759.66;6298132;28;20202;-55
2024/03/14 05:36:08;;;;;;;9.17;7.77;;;;;;;2.10;100.00;97756.59;6294631;28;20189;-53
2024/03/14 05:39:10;;;;;;;9.80;7.50;;;;;;;2.27;100.00;97768.50;6292936;28;20194;-56
2024/03/14 05:42:12;;;;;;;7.27;6.53;;;;;;;2.35;100.00;97745.72;6293674;28;20824;-54
2024/03/14 05:45:16;;;;;;;8.67;6.80;;;;;;;2.68;100.00;97775.78;6291896;28;20233;-54
2024/03/14 05:48:22;;;;;;;8.83;5.73;;;;;;;2.88;100.00;97778.56;6276745;28;20213;-50
2024/03/14 05:51:25;;;;;;;7.77;5.83;;;;;;;2.92;100.00;97769.28;6304593;28;20202;-53
2024/03/14 05:54:27;;;;;;;10.23;5.40;;;;;;;3.04;100.00;97759.03;6273978;28;20784;-54
2024/03/14 05:57:29;;;;;;;8.50;5.93;;;;;;;3.23;100.00;97770.72;6297397;28;20210;-57
2024/03/14 06:00:32;;;;;;;6.63;5.67;;;;;;;3.02;100.00;97774.22;6294696;28;20194;-57
2024/03/14 06:03:34;;;;;;;7.97;5.43;;;;;;;2.96;100.00;97767.09;6296596;28;20206;-57
2024/03/14 06:06:36;;;;;;;6.97;5.37;;;;;;;3.25;100.00;97759.00;6297041;28;20193;-52
2024/03/14 06:09:41;;;;;;;7.67;5.57;;;;;;;3.16;100.00;97775.13;6307784;28;20214;-55
2024/03/14 06:12:45;;;;;;;7.87;5.50;;;;;;;3.00;100.00;97774.41;6293332;28;20200;-57
2024/03/14 06:15:50;;;;;;;7.37;5.80;;;;;;;3.03;100.00;97774.03;6296754;28;20194;-54
2024/03/14 06:18:53;;;;;;;5.80;4.70;;;;;;;3.10;100.00;97772.28;6295823;28;20563;-52
2024/03/14 06:21:56;;;;;;;7.63;5.90;;;;;;;3.11;100.00;97759.91;6302700;28;20720;-55
2024/03/14 06:24:59;;;;;;;6.77;5.30;;;;;;;3.32;100.00;97780.91;6305420;28;20190;-53
2024/03/14 06:28:02;;;;;;;8.63;5.17;;;;;;;3.17;100.00;97780.19;6303749;28;20215;-55
2024/03/14 06:31:05;;;;;;;8.77;5.37;;;;;;;3.22;100.00;97780.44;6297064;28;20183;-56
2024/03/14 06:34:08;;;;;;;34.40;6.17;;;;;;;3.14;100.00;97777.13;6279399;28;20198;-56
2024/03/14 06:37:11;;;;;;;6.37;4.90;;;;;;;3.35;100.00;97792.88;6290284;28;20194;-56
2024/03/14 06:40:17;;;;;;;6.30;5.07;;;;;;;3.33;100.00;97779.91;6296177;28;20195;-53
2024/03/14 06:43:22;;;;;;;11.13;5.63;;;;;;;3.35;100.00;97785.00;6300916;28;20226;-56
2024/03/14 06:46:26;;;;;;;6.47;5.07;;;;;;;3.56;100.00;97784.09;6295678;28;20205;-56
2024/03/14 06:49:29;;;;;;;6.60;5.50;;;;;;;3.62;100.00;97780.66;6305672;28;20209;-56
2024/03/14 06:52:31;;;;;;;6.57;5.27;;;;;;;3.84;100.00;97779.56;6298740;28;20199;-57
2024/03/14 06:55:33;;;;;;;5.73;4.83;;;;;;;4.11;100.00;97784.94;6295745;28;20209;-47
2024/03/14 06:58:38;;;;;;;7.20;4.43;;;;;;;4.22;100.00;97792.25;6277528;28;20701;-52
2024/03/14 07:01:40;;;;;;;10.13;4.80;;;;;;;4.52;100.00;97776.09;6296782;28;20554;-57
2024/03/14 07:04:43;;;;;;;4.93;4.17;;;;;;;4.82;100.00;97782.63;6301376;28;20226;-57
2024/03/14 07:07:45;;;;;;;5.10;3.87;;;;;;;5.01;100.00;97785.47;6294962;28;20253;-53
2024/03/14 07:10:50;;;;;;;5.60;4.50;;;;;;;5.53;100.00;97789.09;6310352;28;20212;-57
2024/03/14 07:13:56;;;;;;;4.30;3.83;;;;;;;5.87;100.00;97790.63;6305815;28;20658;-57
2024/03/14 07:16:58;;;;;;;4.20;3.77;;;;;;;6.21;100.00;97792.16;6301208;28;20205;-51
2024/03/14 07:20:09;;;;;;;4.73;4.00;;;;;;;6.50;100.00;97800.50;6277212;28;20733;-54
2024/03/14 07:23:11;;;;;;;3.93;3.30;;;;;;;6.78;100.00;97795.66;6299044;28;20201;-56
2024/03/14 07:26:23;;;;;;;4.47;3.83;;;;;;;7.06;100.00;97802.41;6295216;28;20329;-57
2024/03/14 07:29:26;;;;;;;5.20;4.30;;;;;;;7.24;94.68;97795.31;6295862;28;20595;-55
2024/03/14 07:32:28;;;;;;;3.70;3.30;;;;;;;7.47;92.55;97796.50;6294696;28;20198;-58
2024/03/14 07:35:31;;;;;;;3.97;3.43;;;;;;;7.62;95.41;97802.28;6294759;28;20198;-55
2024/03/14 07:38:34;;;;;;;5.10;4.07;;;;;;;7.98;88.81;97803.34;6293490;28;20272;-57
2024/03/14 07:41:40;;;;;;;6.07;5.30;;;;;;;8.05;88.38;97808.56;6294555;28;20670;-57
2024/03/14 07:44:45;;;;;;;7.17;5.10;;;;;;;8.26;91.62;97803.56;6302703;28;20298;-55
2024/03/14 07:47:53;;;;;;;5.23;3.73;;;;;;;8.50;82.56;97804.53;6292856;28;20207;-56
2024/03/14 07:50:59;;;;;;;5.70;4.87;;;;;;;8.44;81.92;97781.53;6296289;28;20383;-57
2024/03/14 07:54:01;;;;;;;6.17;4.97;;;;;;;8.62;82.06;97791.31;6294857;28;20566;-55
2024/03/14 07:57:03;;;;;;;5.17;4.67;;;;;;;8.82;83.41;97798.97;6297850;28;20574;-57
2024/03/14 08:00:09;;;;;;;6.07;5.20;;;;;;;8.76;81.42;97781.28;6306314;28;20560;-56
2024/03/14 08:03:11;;;;;;;6.20;4.93;;;;;;;8.80;82.69;97798.38;6291180;28;20289;-58
2024/03/14 08:06:21;;;;;;;5.47;4.83;;;;;;;8.93;84.48;97805.34;6293988;28;20678;-55
2024/03/14 08:09:26;;;;;;;6.20;5.27;;;;;;;9.04;82.13;97789.41;6299893;28;20286;-56
2024/03/14 08:12:31;;;;;;;6.00;5.40;;;;;;;8.96;82.30;97762.38;6302902;28;20196;-57
2024/03/14 08:15:37;;;;;;;5.33;4.60;;;;;;;9.30;82.28;97811.28;6304929;28;20713;-57
2024/03/14 08:18:39;;;;;;;6.23;5.57;;;;;;;9.30;79.33;97796.13;6294867;28;20194;-55
2024/03/14 08:21:41;;;;;;;5.57;4.97;;;;;;;9.47;80.48;97816.75;6294690;28;20749;-58
2024/03/14 08:24:47;;;;;;;5.07;4.57;;;;;;;9.55;80.08;97819.84;6292516;28;20206;-57
2024/03/14 08:27:50;;;;;;;5.73;4.93;;;;;;;9.51;78.50;97818.72;6293606;28;20286;-55
2024/03/14 08:30:53;;;;;;;6.27;5.67;;;;;;;9.29;79.84;97805.16;6298801;28;20191;-58
2024/03/14 08:33:56;;;;;;;6.27;5.53;;;;;;;9.24;82.71;97818.34;6302633;28;20204;-56
2024/03/14 08:36:58;;;;;;;6.70;5.47;;;;;;;9.44;80.89;97815.34;6306275;28;20209;-57
2024/03/14 08:40:00;;;;;;;5.53;5.03;;;;;;;9.50;79.34;97822.38;6297259;28;20975;-57
2024/03/14 08:43:03;;;;;;;7.67;4.90;;;;;;;9.57;79.34;97817.78;6292369;28;20655;-57
2024/03/14 08:46:06;;;;;;;6.50;5.40;;;;;;;9.66;78.76;97814.78;6295962;28;20202;-57
2024/03/14 08:49:09;;;;;;;5.07;4.57;;;;;;;9.52;76.53;97788.41;6297229;28;20219;-56
2024/03/14 08:52:12;;;;;;;5.00;4.50;;;;;;;9.84;76.19;97806.66;6293564;28;20879;-55
2024/03/14 08:55:23;;;;;;;6.03;4.60;;;;;;;9.98;76.03;97802.69;6296170;28;20194;-56
2024/03/14 08:58:26;;;;;;;4.83;4.33;;;;;;;10.11;72.19;97814.13;6303461;28;20200;-54
2024/03/14 09:01:31;;;;;;;4.27;3.87;;;;;;;9.97;73.78;97785.09;6294006;28;20205;-58
2024/03/14 09:04:35;;;;;;;5.67;4.53;;;;;;;10.09;73.03;97815.16;6272162;28;20201;-58
2024/03/14 09:07:40;;;;;;;4.60;4.03;;;;;;;10.02;74.94;97824.31;6299572;28;20560;-57
2024/03/14 09:10:42;;;;;;;5.40;4.83;;;;;;;10.20;73.49;97820.72;6300697;28;20551;-56
2024/03/14 09:13:45;;;;;;;5.13;4.30;;;;;;;9.96;74.29;97794.16;6295527;28;20268;-58
2024/03/14 09:16:47;;;;;;;5.10;4.60;;;;;;;10.07;74.98;97821.78;6296218;28;20208;-53
2024/03/14 09:19:49;;;;;;;6.20;4.63;;;;;;;10.19;74.39;97819.88;6301385;28;20189;-56
2024/03/14 09:22:55;;;;;;;5.77;4.83;;;;;;;10.22;76.69;97811.44;6299910;28;20827;-53
2024/03/14 09:25:59;;;;;;;5.17;4.67;;;;;;;10.21;74.73;97809.81;6292411;28;20262;-58
2024/03/14 09:29:01;;;;;;;7.23;4.20;;;;;;;10.46;73.45;97814.06;6274379;28;20229;-56
2024/03/14 09:32:04;;;;;;;5.23;4.57;;;;;;;10.37;71.16;97816.28;6302817;28;20193;-51
2024/03/14 09:35:11;;;;;;;5.70;4.57;;;;;;;10.30;71.42;97813.75;6302517;28;20228;-52
2024/03/14 09:38:13;;;;;;;4.60;4.17;;;;;;;10.21;72.26;97823.13;6291479;28;20254;-51
2024/03/14 09:41:16;;;;;;;4.37;3.97;;;;;;;10.26;72.08;97812.63;6294208;28;20201;-53
2024/03/14 09:44:24;;;;;;;4.67;3.30;;;;;;;10.18;69.14;97793.50;6291849;28;20237;-51
2024/03/14 09:47:40;;;;;;;4.03;3.53;;;;;;;10.16;70.51;97809.72;6273916;28;20200;-53
2024/03/14 09:50:47;;;;;;;4.40;3.70;;;;;;;10.22;71.39;97807.97;6290251;28;20205;-55
2024/03/14 09:53:54;;;;;;;5.80;3.73;;;;;;;10.32;68.59;97808.19;6308088;28;20232;-57
2024/03/14 09:56:57;;;;;;;3.50;3.17;;;;;;;10.23;70.57;97810.38;6289559;28;20202;-56
2024/03/14 09:59:59;;;;;;;4.30;3.80;;;;;;;10.36;69.34;97804.00;6300182;28;20716;-55
2024/03/14 10:03:04;;;;;;;4.57;3.27;;;;;;;10.39;70.95;97814.16;6302122;28;20200;-55
2024/03/14 10:06:20;;;;;;;4.03;3.63;;;;;;;10.39;72.70;97808.03;6300323;28;20202;-55
2024/03/14 10:09:23;;;;;;;4.47;3.70;;;;;;;10.57;74.38;97807.88;6294370;28;20214;-55
2024/03/14 10:12:29;;;;;;;4.10;3.63;;;;;;;10.58;71.82;97814.81;6292792;28;20198;-54
2024/03/14 10:15:37;;;;;;;4.80;3.17;;;;;;;10.52;77.25;97811.25;6296388;28;20547;-55
2024/03/14 10:18:41;;;;;;;3.30;3.00;;;;;;;10.67;69.84;97801.91;6291727;28;20202;-53
2024/03/14 10:21:45;;;;;;;4.07;3.30;;;;;;;10.41;73.56;97797.97;6293224;28;20660;-55
2024/03/14 10:24:47;;;;;;;4.27;3.70;;;;;;;10.47;74.50;97810.34;6290979;28;20678;-54
2024/03/14 10:27:54;;;;;;;3.67;3.37;;;;;;;10.26;73.11;97806.47;6304542;28;20234;-52
2024/03/14 10:31:04;;;;;;;4.00;3.60;;;;;;;10.23;77.41;97799.72;6299217;28;20320;-51
2024/03/14 10:34:08;;;;;;;4.73;3.53;;;;;;;10.44;74.82;97795.66;6291630;28;20281;-55
2024/03/14 10:37:26;;;;;;;3.90;3.50;;;;;;;10.43;75.49;97785.22;6292487;28;20221;-55
2024/03/14 10:40:28;;;;;;;3.70;3.27;;;;;;;10.48;74.67;97794.13;6293473;28;20661;-55
2024/03/14 10:43:39;;;;;;;4.93;3.43;;;;;;;10.51;75.86;97798.97;6283844;28;20737;-54
2024/03/14 10:46:42;;;;;;;3.43;3.13;;;;;;;10.62;75.89;97791.16;6291330;28;20588;-53
2024/03/14 10:49:47;;;;;;;3.67;3.20;;;;;;;10.69;76.11;97794.47;6296643;28;20209;-52
2024/03/14 10:52:54;;;;;;;7.47;3.87;;;;;;;10.69;74.93;97782.00;6295455;28;20191;-56
2024/03/14 10:55:58;;;;;;;3.40;3.10;;;;;;;10.73;76.87;97784.97;6293769;28;20230;-55
2024/03/14 10:59:02;;;;;;;3.07;2.77;;;;;;;10.93;76.33;97787.97;6295834;28;20190;-57
2024/03/14 11:02:04;;;;;;;3.67;3.23;;;;;;;11.02;76.65;97791.06;6300927;28;20673;-56
2024/03/14 11:05:07;;;;;;;3.50;3.20;;;;;;;11.00;76.07;97783.31;6300024;28;20716;-56
2024/03/14 11:08:11;;;;;;;3.27;2.97;;;;;;;10.96;77.39;97782.16;6296541;28;20259;-51
2024/03/14 11:11:18;;;;;;;3.50;2.70;;;;;;;10.94;82.37;97780.81;6295440;28;20195;-54
2024/03/14 11:14:45;;;;;;;4.07;3.67;;;;;;;10.86;84.94;97787.34;6294883;28;20201;-54
2024/03/14 11:17:51;;;;;;;5.87;4.13;;;;;;;10.66;87.86;97777.13;6276063;28;20210;-57
2024/03/14 11:20:56;;;;;;;7.40;4.50;;;;;;;10.48;93.37;97777.31;6292546;28;20204;-56
2024/03/14 11:24:02;;;;;;;5.03;4.53;;;;;;;10.16;94.81;97759.13;6308061;28;20218;-56
2024/03/14 11:27:06;;;;;;;4.57;4.17;;;;;;;10.29;95.33;97764.19;6302621;28;20214;-56
2024/03/14 11:30:21;;;;;;;4.60;4.10;;;;;;;10.39;93.67;97768.91;6294415;28;20221;-57
2024/03/14 11:33:28;;;;;;;4.47;4.03;;;;;;;10.40;92.36;97770.53;6294461;28;20260;-56
2024/03/14 11:36:33;;;;;;;4.80;4.30;;;;;;;10.57;92.64;97763.38;6293279;28;20191;-55
2024/03/14 11:39:36;;;;;;;5.67;4.23;;;;;;;10.64;89.36;97757.09;6312867;28;20701;-53
2024/03/14 11:42:49;;;;;;;5.07;4.57;;;;;;;10.58;90.96;97750.88;6331711;28;20194;-56
2024/03/14 11:46:04;;;;;;;4.40;3.93;;;;;;;10.74;91.29;97754.63;6328645;28;20205;-55
2024/03/14 11:49:16;;;;;;;5.90;4.33;;;;;;;10.90;91.82;97750.34;6326324;28;20226;-52
2024/03/14 11:52:19;;;;;;;4.47;3.93;;;;;;;11.00;88.09;97745.19;6322392;28;20205;-50
2024/03/14 11:55:22;;;;;;;5.80;4.23;;;;;;;11.19;85.97;97740.41;6327499;28;20194;-55
2024/03/14 11:58:24;;;;;;;5.53;4.10;;;;;;;11.11;87.13;97739.75;6328407;28;20194;-53
2024/03/14 12:01:31;;;;;;;4.57;3.80;;;;;;;11.22;89.13;97730.03;6321920;28;20209;-55
2024/03/14 12:04:50;;;;;;;6.50;4.37;;;;;;;11.20;86.49;97724.16;6319832;28;20214;-57
2024/03/14 12:07:54;;;;;;;4.17;3.70;;;;;;;11.18;89.00;97715.63;6326367;28;20194;-55
2024/03/14 12:10:57;;;;;;;5.27;4.27;;;;;;;11.34;86.19;97721.97;6321193;28;20206;-58
2024/03/14 12:14:01;;;;;;;4.83;4.13;;;;;;;11.40;86.22;97720.97;6316874;28;20190;-57
2024/03/14 12:17:03;;;;;;;4.87;3.90;;;;;;;11.33;85.76;97729.16;6325301;28;20260;-57
2024/03/14 12:20:10;;;;;;;5.03;4.27;;;;;;;11.37;85.60;97713.44;6324264;28;20193;-57
2024/03/14 12:23:13;;;;;;;3.27;2.90;;;;;;;11.44;83.24;97711.44;6327145;28;20231;-55
2024/03/14 12:26:17;;;;;;;3.37;3.07;;;;;;;11.47;84.00;97704.78;6324594;28;20336;-53
2024/03/14 12:29:26;;;;;;;4.13;3.70;;;;;;;11.50;83.99;97717.63;6320728;28;20210;-56
2024/03/14 12:32:29;;;;;;;4.20;3.80;;;;;;;11.37;83.58;97702.78;6315243;28;20205;-57
2024/03/14 12:35:33;;;;;;;3.13;2.83;;;;;;;11.42;85.64;97702.84;6318548;28;20213;-51
2024/03/14 12:38:35;;;;;;;5.03;3.90;;;;;;;11.33;85.77;97691.81;6316152;28;20190;-54
2024/03/14 12:41:38;;;;;;;4.27;3.80;;;;;;;11.50;87.33;97701.63;6328595;28;20197;-57
2024/03/14 12:44:40;;;;;;;4.10;3.67;;;;;;;11.39;88.34;97702.56;6291831;28;20226;-57
2024/03/14 12:47:44;;;;;;;3.40;3.10;;;;;;;11.47;85.83;97696.78;6299742;28;20206;-57
2024/03/14 12:50:46;;;;;;;3.50;3.20;;;;;;;11.51;82.67;97701.38;6292471;28;20190;-52
2024/03/14 12:53:55;;;;;;;3.60;3.30;;;;;;;11.55;82.51;97691.81;6294308;28;20194;-57
2024/03/14 12:56:57;;;;;;;3.30;3.00;;;;;;;11.63;82.77;97696.75;6291496;28;20221;-51
2024/03/14 13:00:00;;;;;;;4.40;3.00;;;;;;;11.80;81.66;97694.00;6292211;28;20203;-57
2024/03/14 13:03:02;;;;;;;3.60;2.93;;;;;;;11.88;82.71;97685.59;6294854;28;20194;-53
2024/03/14 13:06:04;;;;;;;3.03;2.43;;;;;;;12.10;78.09;97674.88;6292520;28;20217;-55
2024/03/14 13:09:14;;;;;;;2.60;2.40;;;;;;;12.09;77.84;97677.81;6292552;28;20772;-55
2024/03/14 13:12:19;;;;;;;3.13;2.83;;;;;;;12.19;77.05;97677.09;6294232;28;20191;-56
2024/03/14 13:15:22;;;;;;;2.80;2.60;;;;;;;12.06;77.16;97648.94;6294327;28;20296;-55
2024/03/14 13:18:26;;;;;;;3.93;3.00;;;;;;;12.21;78.59;97666.97;6295207;28;20217;-56
2024/03/14 13:21:42;;;;;;;3.33;3.00;;;;;;;12.39;74.99;97680.78;6296975;28;20274;-57
2024/03/14 13:24:44;;;;;;;3.63;3.23;;;;;;;12.42;74.09;97681.34;6292431;28;20374;-56
2024/03/14 13:27:48;;;;;;;3.17;2.77;;;;;;;12.22;76.29;97674.75;6292210;28;20202;-55
2024/03/14 13:30:50;;;;;;;3.20;2.90;;;;;;;12.36;76.40;97670.59;6292192;28;20209;-56
2024/03/14 13:33:52;;;;;;;4.70;3.30;;;;;;;12.27;75.28;97653.44;6292139;28;20226;-56
2024/03/14 13:36:55;;;;;;;3.20;2.90;;;;;;;12.46;75.89;97658.38;6293616;28;20203;-57
2024/03/14 13:39:57;;;;;;;3.50;3.07;;;;;;;12.54;76.82;97663.25;6295203;28;20198;-54
2024/03/14 13:43:01;;;;;;;3.43;3.13;;;;;;;12.72;73.31;97659.41;6297472;28;20197;-52
2024/03/14 13:46:03;;;;;;;3.47;3.17;;;;;;;12.43;73.81;97659.72;6317096;28;20194;-54
2024/03/14 13:49:11;;;;;;;3.50;3.20;;;;;;;12.28;76.54;97655.03;6321399;28;20372;-56
2024/03/14 13:52:14;;;;;;;3.20;2.43;;;;;;;12.30;74.26;97662.78;6316026;28;20201;-55
2024/03/14 13:55:28;;;;;;;2.97;2.67;;;;;;;12.20;75.59;97652.81;6316981;28;20721;-57
2024/03/14 13:58:35;;;;;;;2.80;2.60;;;;;;;12.30;75.75;97662.78;6316873;28;20199;-56
2024/03/14 14:01:39;;;;;;;2.60;2.40;;;;;;;12.39;73.17;97642.56;6335814;28;20185;-56
2024/03/14 14:04:41;;;;;;;2.90;2.40;;;;;;;12.53;72.81;97654.44;6318763;28;20285;-56
2024/03/14 14:07:44;;;;;;;2.77;2.57;;;;;;;12.57;72.42;97657.41;6322731;28;20273;-56
2024/03/14 14:10:55;;;;;;;2.63;2.40;;;;;;;12.40;74.57;97660.19;6325598;28;20198;-54
2024/03/14 14:13:57;;;;;;;2.93;2.37;;;;;;;12.63;73.37;97659.06;6324271;28;20205;-56
2024/03/14 14:17:00;;;;;;;2.87;2.40;;;;;;;12.63;73.26;97667.09;6302866;28;20231;-55
2024/03/14 14:20:08;;;;;;;3.10;2.43;;;;;;;12.46;74.63;97663.72;6317018;28;20190;-53
2024/03/14 14:23:11;;;;;;;3.10;2.83;;;;;;;12.64;72.73;97658.81;6321068;28;20190;-54
2024/03/14 14:26:14;;;;;;;3.40;2.77;;;;;;;12.39;73.70;97655.94;6325893;28;20701;-56